Time;durP1;ratioP1;P1;durP2;ratioP2;P2;SDS_P1;SDS_P2;PMS_P1;PMS_P2;Temp;Humidity;BMP_temperature;BMP_pressure;BME280_temperature;BME280_humidity;BME280_pressure;Samples;Min_cycle;Max_cycle;Signal;HPM_P1;HPM_P2
2022/08/08 08:01:35;;;;;;;43.25;35.72;;;;;;;18.86;65.26;102456.03;5386901;27;20168;-67
2022/08/08 08:04:13;;;;;;;6.72;5.07;;;;;;;18.93;65.83;102461.28;5363626;27;20035;-68
2022/08/08 08:06:45;;;;;;;5.97;5.03;;;;;;;18.92;65.36;102462.44;5350348;27;20026;-67
2022/08/08 08:09:27;;;;;;;8.13;3.50;;;;;;;19.09;63.93;102459.03;5364926;27;20035;-68
2022/08/08 08:11:59;;;;;;;6.85;3.67;;;;;;;19.17;64.00;102463.13;5363762;27;20023;-67
2022/08/08 08:14:41;;;;;;;6.00;3.58;;;;;;;19.19;64.25;102460.84;5364745;27;20485;-67
2022/08/08 08:17:18;;;;;;;4.93;3.88;;;;;;;19.27;63.25;102474.19;5362630;27;20062;-67
2022/08/08 08:19:55;;;;;;;7.70;3.67;;;;;;;19.38;63.32;102472.84;5363923;27;20449;-67
2022/08/08 08:22:27;;;;;;;6.80;4.00;;;;;;;19.39;62.76;102457.63;5356151;27;20026;-67
2022/08/08 08:24:58;;;;;;;5.68;3.40;;;;;;;19.54;63.17;102464.94;5364661;27;20029;-67
2022/08/08 08:27:29;;;;;;;5.78;3.33;;;;;;;19.66;62.85;102467.22;5363606;27;20061;-68
2022/08/08 08:30:01;;;;;;;4.45;3.33;;;;;;;19.75;62.65;102473.84;5356035;27;20031;-68
2022/08/08 08:32:33;;;;;;;5.55;3.15;;;;;;;19.83;62.17;102467.47;5363924;27;20019;-67
2022/08/08 08:35:05;;;;;;;5.53;3.17;;;;;;;19.86;61.02;102472.47;5364346;27;20018;-68
2022/08/08 08:37:36;;;;;;;5.53;3.13;;;;;;;19.92;60.45;102464.78;5364107;27;20389;-68
2022/08/08 08:40:08;;;;;;;3.10;2.67;;;;;;;19.95;60.45;102470.59;5347114;27;20131;-67
2022/08/08 08:42:40;;;;;;;6.45;3.08;;;;;;;20.03;60.00;102474.66;5364059;27;20038;-69
2022/08/08 08:45:12;;;;;;;8.02;5.22;;;;;;;20.05;59.01;102479.97;5364394;27;20079;-69
2022/08/08 08:47:43;;;;;;;4.60;3.10;;;;;;;20.13;58.20;102487.69;5363227;27;20030;-67
2022/08/08 08:50:15;;;;;;;5.05;2.40;;;;;;;20.09;57.40;102476.19;5358752;27;20049;-67
2022/08/08 08:52:46;;;;;;;5.97;3.03;;;;;;;20.19;58.42;102478.78;5363895;27;20031;-68
2022/08/08 08:55:19;;;;;;;4.72;2.53;;;;;;;20.28;58.35;102483.69;5358548;27;20019;-66
2022/08/08 08:57:52;;;;;;;3.97;2.35;;;;;;;20.28;56.86;102480.88;5363752;27;20023;-67
2022/08/08 09:00:24;;;;;;;6.35;2.60;;;;;;;20.42;56.74;102479.66;5359565;27;20813;-67
2022/08/08 09:02:58;;;;;;;4.63;2.28;;;;;;;20.49;56.57;102481.22;5350193;27;20144;-67
2022/08/08 09:05:34;;;;;;;3.45;2.33;;;;;;;20.63;55.26;102479.22;5355744;27;20023;-67
2022/08/08 09:08:08;;;;;;;5.43;2.40;;;;;;;20.61;55.12;102481.53;5362586;27;20406;-68
2022/08/08 09:10:40;;;;;;;4.85;3.05;;;;;;;20.46;55.34;102479.06;5362847;27;20034;-68
2022/08/08 09:13:12;;;;;;;7.28;2.55;;;;;;;20.49;55.59;102475.59;5338199;27;20024;-67
2022/08/08 09:15:43;;;;;;;6.30;2.60;;;;;;;20.61;55.58;102484.38;5326125;27;20020;-67
2022/08/08 09:18:18;;;;;;;5.65;2.20;;;;;;;20.70;54.86;102473.97;5334875;27;20042;-67
2022/08/08 09:20:50;;;;;;;6.82;2.35;;;;;;;20.77;52.73;102477.19;5348627;27;20034;-69
2022/08/08 09:23:21;;;;;;;4.93;2.10;;;;;;;20.88;53.31;102479.75;5335135;27;20019;-68
2022/08/08 09:26:03;;;;;;;4.13;2.08;;;;;;;21.08;52.66;102490.50;5328097;27;20028;-67
2022/08/08 09:28:38;;;;;;;4.97;3.38;;;;;;;21.10;52.61;102491.03;5331961;27;20023;-67
2022/08/08 09:31:19;;;;;;;7.07;4.97;;;;;;;21.13;53.62;102479.09;5342155;27;20118;-66
2022/08/08 09:33:52;;;;;;;4.93;2.20;;;;;;;21.19;51.45;102479.78;5338744;27;20051;-68
2022/08/08 09:36:28;;;;;;;3.35;2.78;;;;;;;20.97;54.80;102484.31;5347639;27;20027;-67
2022/08/08 09:39:03;;;;;;;7.45;2.92;;;;;;;21.17;54.95;102476.47;5341391;27;20486;-68
2022/08/08 09:41:39;;;;;;;5.30;2.50;;;;;;;21.37;55.01;102480.72;5348747;27;20019;-66
2022/08/08 09:44:28;;;;;;;6.30;1.83;;;;;;;21.44;54.05;102481.13;5334951;27;20032;-68
2022/08/08 09:47:06;;;;;;;4.50;2.20;;;;;;;21.49;54.18;102475.34;5340305;27;20389;-67
2022/08/08 09:49:38;;;;;;;4.35;2.00;;;;;;;21.39;54.85;102478.44;5341383;27;20079;-67
2022/08/08 09:52:10;;;;;;;5.75;2.25;;;;;;;21.58;54.76;102475.38;5339226;27;20031;-68
2022/08/08 09:54:43;;;;;;;4.32;2.00;;;;;;;21.59;54.17;102477.88;5342004;27;20034;-68
2022/08/08 09:57:20;;;;;;;3.75;1.90;;;;;;;21.57;54.27;102465.25;5335575;27;20034;-67
2022/08/08 09:59:55;;;;;;;24.05;21.65;;;;;;;21.64;52.02;102474.91;5346515;27;20387;-67
2022/08/08 10:02:37;;;;;;;3.50;2.63;;;;;;;21.69;52.36;102469.09;5332356;27;20076;-67
2022/08/08 10:05:12;;;;;;;14.55;12.88;;;;;;;21.70;52.75;102475.56;5345941;27;20027;-68
2022/08/08 10:07:49;;;;;;;20.40;16.85;;;;;;;21.62;53.53;102477.22;5347946;27;20034;-68
2022/08/08 10:10:24;;;;;;;3.00;2.40;;;;;;;21.87;53.64;102474.81;5347992;27;20102;-68
2022/08/08 10:12:56;;;;;;;3.33;1.90;;;;;;;21.95;52.71;102474.00;5339166;27;20114;-68
2022/08/08 10:15:36;;;;;;;5.00;2.10;;;;;;;22.14;52.85;102476.56;5347884;27;20019;-67
2022/08/08 10:18:07;;;;;;;2.15;1.77;;;;;;;22.09;51.27;102474.72;5346824;27;20076;-67
2022/08/08 10:20:44;;;;;;;4.45;3.10;;;;;;;22.16;50.94;102479.84;5342930;27;20035;-68
2022/08/08 10:23:17;;;;;;;5.80;1.83;;;;;;;21.92;51.38;102483.13;5343510;27;20419;-67
2022/08/08 10:25:50;;;;;;;3.65;1.95;;;;;;;22.01;51.80;102472.72;5346768;27;20019;-68
2022/08/08 10:28:22;;;;;;;3.17;1.73;;;;;;;22.15;51.66;102467.72;5343840;27;20461;-68
2022/08/08 10:30:56;;;;;;;3.03;1.60;;;;;;;22.19;50.35;102470.78;5334891;27;20068;-66
2022/08/08 10:33:31;;;;;;;3.97;1.23;;;;;;;22.44;49.52;102469.13;5344686;27;20080;-68
2022/08/08 10:36:03;;;;;;;3.92;1.52;;;;;;;22.48;49.17;102464.47;5347272;27;20458;-69
2022/08/08 10:38:36;;;;;;;6.68;1.80;;;;;;;22.36;50.58;102461.47;5338813;27;20038;-67
2022/08/08 10:41:15;;;;;;;3.25;1.83;;;;;;;22.31;50.12;102467.28;5345449;27;20446;-67
2022/08/08 10:43:49;;;;;;;4.55;2.08;;;;;;;22.32;50.79;102460.50;5331598;27;20034;-67
2022/08/08 10:46:27;;;;;;;3.92;2.00;;;;;;;22.08;51.66;102466.56;5337478;27;20031;-68
2022/08/08 10:48:58;;;;;;;4.00;1.70;;;;;;;21.98;52.16;102462.03;5347090;27;20029;-69
2022/08/08 10:51:35;;;;;;;4.90;1.80;;;;;;;22.05;51.89;102470.03;5339096;27;20103;-67
2022/08/08 10:54:07;;;;;;;6.20;4.05;;;;;;;22.22;50.76;102466.47;5342902;27;20452;-67
2022/08/08 10:56:38;;;;;;;5.25;3.40;;;;;;;22.48;50.51;102475.78;5331472;27;20154;-67
2022/08/08 10:59:10;;;;;;;13.05;9.60;;;;;;;22.51;50.62;102475.13;5338887;27;20027;-67
2022/08/08 11:01:45;;;;;;;4.50;1.77;;;;;;;22.58;49.52;102466.16;5345986;27;20100;-66
2022/08/08 11:04:17;;;;;;;3.35;1.60;;;;;;;22.70;49.77;102469.16;5346062;27;20039;-68
2022/08/08 11:06:58;;;;;;;3.20;1.98;;;;;;;22.46;49.01;102469.63;5346865;27;20098;-68
2022/08/08 11:09:30;;;;;;;3.10;1.52;;;;;;;22.36;50.08;102462.31;5346507;27;20362;-72
2022/08/08 11:12:02;;;;;;;3.65;1.45;;;;;;;22.68;49.57;102462.16;5338302;27;20030;-68
2022/08/08 11:14:33;;;;;;;2.88;1.70;;;;;;;22.55;49.34;102464.81;5344797;27;20019;-67
2022/08/08 11:17:05;;;;;;;3.53;1.85;;;;;;;23.00;49.42;102458.78;5346240;27;20034;-67
2022/08/08 11:19:37;;;;;;;4.10;1.73;;;;;;;23.08;49.17;102459.13;5344691;27;20034;-67
2022/08/08 11:22:13;;;;;;;5.55;1.83;;;;;;;22.87;48.09;102465.44;5335083;27;20027;-67
2022/08/08 11:24:46;;;;;;;2.63;1.60;;;;;;;22.63;48.10;102459.50;5346094;27;20019;-68
2022/08/08 11:27:19;;;;;;;3.38;1.40;;;;;;;22.68;48.21;102451.66;5346748;27;20102;-68
2022/08/08 11:29:55;;;;;;;3.17;1.40;;;;;;;22.67;48.37;102457.66;5330169;27;20051;-68
2022/08/08 11:32:30;;;;;;;2.20;1.60;;;;;;;22.65;47.98;102451.50;5329507;27;20031;-69
2022/08/08 11:35:11;;;;;;;2.10;1.55;;;;;;;22.82;48.27;102450.66;5344224;27;20026;-68
2022/08/08 11:37:42;;;;;;;1.73;1.30;;;;;;;22.89;47.96;102448.16;5331267;27;20085;-68
2022/08/08 11:40:14;;;;;;;2.80;1.60;;;;;;;23.03;48.32;102451.63;5345140;27;20438;-67
2022/08/08 11:42:46;;;;;;;4.32;1.30;;;;;;;22.81;47.60;102447.00;5344198;27;20027;-68
2022/08/08 11:45:20;;;;;;;17.75;15.20;;;;;;;22.79;47.75;102438.00;5334954;27;20049;-69
2022/08/08 11:47:52;;;;;;;3.67;2.00;;;;;;;22.67;46.91;102444.34;5345209;27;20030;-68
2022/08/08 11:50:24;;;;;;;2.35;2.00;;;;;;;22.73;46.57;102459.16;5345132;27;20028;-68
2022/08/08 11:52:56;;;;;;;2.78;1.20;;;;;;;22.67;46.00;102440.69;5343723;27;20027;-68
2022/08/08 11:55:28;;;;;;;3.10;1.40;;;;;;;22.77;46.09;102443.16;5345851;27;20031;-69
2022/08/08 11:58:07;;;;;;;1.90;1.15;;;;;;;22.76;45.51;102441.53;5345206;28;20042;-70
2022/08/08 12:00:55;;;;;;;1.80;1.20;;;;;;;22.99;45.70;102437.34;5340589;27;20046;-68
2022/08/08 12:03:32;;;;;;;2.35;1.13;;;;;;;23.27;45.57;102448.25;5334298;28;20020;-69
2022/08/08 12:06:12;;;;;;;3.75;1.35;;;;;;;23.16;45.87;102435.63;5342993;28;20020;-69
2022/08/08 12:08:43;;;;;;;2.58;1.50;;;;;;;23.20;45.73;102428.13;5336243;28;20058;-69
2022/08/08 12:11:17;;;;;;;1.67;1.40;;;;;;;23.35;44.49;102436.06;5334716;28;20474;-68
2022/08/08 12:13:49;;;;;;;2.53;1.35;;;;;;;23.22;43.83;102431.47;5338587;28;20027;-70
2022/08/08 12:16:21;;;;;;;2.35;1.13;;;;;;;23.06;43.89;102435.97;5345727;28;20031;-68
2022/08/08 12:18:54;;;;;;;1.63;1.02;;;;;;;23.28;44.14;102435.75;5344867;28;20140;-68
2022/08/08 12:21:30;;;;;;;1.13;0.98;;;;;;;23.12;43.70;102426.16;5338015;27;20517;-68
2022/08/08 12:24:05;;;;;;;;;;;;;;;23.43;43.59;102421.03;5344427;28;20023;-69
2022/08/08 12:26:51;;;;;;;3.40;1.50;;;;;;;23.57;43.68;102402.97;5333988;28;20276;-69
2022/08/08 12:29:31;;;;;;;4.88;1.40;;;;;;;23.79;43.34;102413.22;5337627;28;20423;-68
2022/08/08 12:32:04;;;;;;;3.20;1.60;;;;;;;23.75;42.81;102415.06;5345056;28;20035;-69
2022/08/08 12:34:38;;;;;;;3.20;1.30;;;;;;;24.09;42.83;102422.53;5344119;27;20453;-68
2022/08/08 12:37:29;;;;;;;2.65;1.70;;;;;;;24.11;42.78;102405.16;5336033;28;20117;-68
2022/08/08 12:40:12;;;;;;;7.55;6.88;;;;;;;24.18;42.50;102411.94;5341086;28;20033;-70
2022/08/08 12:42:47;;;;;;;2.38;1.55;;;;;;;24.34;42.27;102408.47;5343672;28;20027;-69
2022/08/08 12:45:18;;;;;;;;;;;;;;;24.64;41.47;102407.22;5330528;28;20031;-69
2022/08/08 12:47:58;;;;;;;4.23;1.40;;;;;;;24.60;42.09;102408.31;5342520;27;19972;-70
2022/08/08 12:50:44;;;;;;;3.08;1.30;;;;;;;24.50;41.74;102398.22;5332847;27;20280;-68
2022/08/08 12:53:28;;;;;;;4.45;1.65;;;;;;;24.52;41.41;102410.88;5346229;27;20369;-69
2022/08/08 12:56:03;;;;;;;2.17;1.70;;;;;;;24.30;41.35;102414.84;5336520;27;20031;-69
2022/08/08 12:58:49;;;;;;;2.38;1.30;;;;;;;24.27;41.83;102414.72;5340301;27;20031;-68
2022/08/08 13:01:20;;;;;;;;;;;;;;;24.53;41.74;102411.69;5345043;27;20161;-69
2022/08/08 13:03:51;;;;;;;2.40;1.23;;;;;;;24.23;41.64;102408.06;5344704;27;20005;-68
2022/08/08 13:06:22;;;;;;;12.25;9.75;;;;;;;24.65;41.40;102397.56;5336105;27;20023;-68
2022/08/08 13:08:55;;;;;;;39.20;34.33;;;;;;;24.79;41.28;102405.75;5345261;27;20028;-68
2022/08/08 13:11:37;;;;;;;4.93;2.92;;;;;;;24.97;41.63;102402.72;5344310;27;20449;-69
2022/08/08 13:14:14;;;;;;;3.67;1.77;;;;;;;24.94;41.94;102404.25;5347200;27;20046;-69
2022/08/08 13:16:45;;;;;;;2.67;1.40;;;;;;;24.63;41.11;102411.25;5335712;27;20071;-68
2022/08/08 13:19:22;;;;;;;1.80;1.30;;;;;;;24.81;40.82;102408.25;5348644;27;20022;-69
2022/08/08 13:21:54;;;;;;;3.25;1.33;;;;;;;25.08;40.41;102404.78;5342276;27;20032;-69
2022/08/08 13:24:27;;;;;;;3.88;1.48;;;;;;;24.95;40.93;102403.91;5336398;27;20466;-68
2022/08/08 13:27:28;;;;;;;2.63;1.55;;;;;;;25.25;41.07;102394.41;5345711;27;20108;-68
2022/08/08 13:30:03;;;;;;;8.27;5.20;;;;;;;25.27;40.88;102406.25;5342343;27;20027;-68
2022/08/08 13:32:36;;;;;;;3.33;1.40;;;;;;;25.43;40.42;102398.69;5341231;27;20164;-68
2022/08/08 13:35:10;;;;;;;2.55;1.55;;;;;;;25.48;39.76;102404.13;5334232;27;20026;-69
2022/08/08 13:37:42;;;;;;;1.52;1.10;;;;;;;25.16;39.76;102386.84;5342533;27;20031;-69
2022/08/08 13:40:15;;;;;;;6.40;1.88;;;;;;;25.38;39.19;102391.22;5337962;27;20023;-69
2022/08/08 13:42:47;;;;;;;5.00;1.52;;;;;;;25.50;39.56;102401.75;5343919;27;20470;-69
2022/08/08 13:45:19;;;;;;;5.50;2.00;;;;;;;25.63;39.45;102396.09;5338556;27;20027;-72
2022/08/08 13:47:58;;;;;;;2.45;1.60;;;;;;;25.88;39.24;102385.56;5343133;27;20381;-69
2022/08/08 13:50:33;;;;;;;5.38;1.40;;;;;;;26.06;38.98;102386.13;5330876;27;20031;-69
2022/08/08 13:53:05;;;;;;;2.58;1.50;;;;;;;25.99;38.74;102396.06;5339923;27;20390;-69
2022/08/08 13:55:37;;;;;;;2.60;2.30;;;;;;;26.13;39.42;102390.00;5342750;27;20043;-69
2022/08/08 13:58:17;;;;;;;5.35;1.80;;;;;;;26.06;39.25;102391.78;5347187;27;20051;-69
2022/08/08 14:00:49;;;;;;;2.53;1.48;;;;;;;25.97;38.71;102384.22;5337347;27;20043;-68
2022/08/08 14:03:28;;;;;;;2.80;1.58;;;;;;;25.87;38.72;102384.72;5339294;27;20027;-69
2022/08/08 14:06:09;;;;;;;2.08;1.48;;;;;;;25.65;38.65;102382.34;5344278;27;20042;-69
2022/08/08 14:08:44;;;;;;;2.75;1.50;;;;;;;25.18;39.36;102392.16;5348103;27;20038;-68
2022/08/08 14:11:20;;;;;;;2.03;1.48;;;;;;;25.03;39.50;102396.50;5335511;27;20427;-68
2022/08/08 14:13:52;;;;;;;2.63;1.23;;;;;;;25.32;38.50;102386.16;5348006;27;20065;-68
2022/08/08 14:16:23;;;;;;;2.72;1.40;;;;;;;25.60;38.53;102377.75;5348050;27;20487;-67
2022/08/08 14:18:56;;;;;;;2.35;1.35;;;;;;;26.01;37.64;102373.78;5339510;27;20023;-68
2022/08/08 14:21:41;;;;;;;2.95;1.60;;;;;;;25.97;37.25;102378.53;5336790;27;20069;-68
2022/08/08 14:24:28;;;;;;;1.95;1.58;;;;;;;26.24;36.72;102381.78;5346737;27;20024;-68
2022/08/08 14:27:00;;;;;;;2.85;1.10;;;;;;;26.18;36.64;102375.53;5338366;27;20031;-69
2022/08/08 14:29:31;;;;;;;4.25;1.80;;;;;;;26.14;36.48;102377.44;5340118;27;20096;-71
2022/08/08 14:32:04;;;;;;;2.88;1.30;;;;;;;26.29;37.15;102383.56;5345526;27;20028;-69
2022/08/08 14:34:35;;;;;;;2.90;1.38;;;;;;;26.33;37.91;102379.63;5347304;27;20030;-68
2022/08/08 14:37:07;;;;;;;2.97;1.17;;;;;;;26.45;37.92;102381.59;5341490;27;20477;-69
2022/08/08 14:39:47;;;;;;;2.08;1.35;;;;;;;26.43;37.75;102373.44;5346724;27;20380;-67
2022/08/08 14:42:34;;;;;;;2.35;1.38;;;;;;;26.52;37.83;102370.44;5346956;27;20366;-70
2022/08/08 14:45:08;;;;;;;4.72;1.73;;;;;;;26.36;37.35;102369.56;5333972;27;20059;-71
2022/08/08 14:47:59;;;;;;;2.85;1.30;;;;;;;26.48;37.67;102371.50;5340722;27;20035;-70
2022/08/08 14:50:32;;;;;;;1.95;1.23;;;;;;;26.41;37.17;102375.81;5331341;27;20465;-70
2022/08/08 14:53:08;;;;;;;2.63;1.50;;;;;;;26.54;37.21;102370.91;5337416;27;20026;-69
2022/08/08 14:55:40;;;;;;;3.58;1.40;;;;;;;26.17;36.37;102370.19;5341117;27;20081;-70
2022/08/08 14:58:11;;;;;;;4.88;1.63;;;;;;;26.25;36.28;102366.38;5347194;27;20023;-68
2022/08/08 15:00:43;;;;;;;1.95;1.25;;;;;;;26.25;36.69;102377.75;5345526;27;20070;-70
2022/08/08 15:03:14;;;;;;;2.92;1.55;;;;;;;26.14;37.39;102380.28;5344797;27;20029;-69
2022/08/08 15:05:46;;;;;;;3.38;1.30;;;;;;;26.14;37.84;102366.06;5340578;27;20023;-69
2022/08/08 15:08:18;;;;;;;2.80;1.40;;;;;;;26.10;37.02;102375.66;5344568;27;20019;-69
2022/08/08 15:10:49;;;;;;;1.88;1.60;;;;;;;25.96;37.42;102368.34;5345552;27;20498;-69
2022/08/08 15:13:21;;;;;;;2.97;1.63;;;;;;;26.00;37.70;102362.78;5345981;27;20043;-69
2022/08/08 15:15:52;;;;;;;4.78;1.50;;;;;;;25.90;37.77;102364.13;5346262;27;20027;-70
2022/08/08 15:18:23;;;;;;;5.63;1.30;;;;;;;25.96;38.00;102359.84;5337960;27;20115;-69
2022/08/08 15:20:55;;;;;;;2.70;1.60;;;;;;;25.87;37.91;102356.28;5341786;27;20027;-68
2022/08/08 15:23:26;;;;;;;2.58;1.70;;;;;;;25.84;38.13;102359.00;5343492;27;20035;-68
2022/08/08 15:25:57;;;;;;;3.10;1.40;;;;;;;25.83;38.02;102366.69;5345243;27;20031;-69
2022/08/08 15:28:29;;;;;;;3.15;1.50;;;;;;;25.60;37.84;102361.53;5345020;27;20055;-69
2022/08/08 15:31:00;;;;;;;3.38;1.30;;;;;;;25.65;37.84;102365.31;5346432;27;20057;-70
2022/08/08 15:33:31;;;;;;;2.95;1.42;;;;;;;25.60;38.55;102364.38;5346379;27;20023;-72
2022/08/08 15:36:03;;;;;;;3.47;1.58;;;;;;;25.82;38.21;102359.34;5344699;27;20376;-71
2022/08/08 15:38:34;;;;;;;3.75;1.30;;;;;;;25.53;38.20;102364.13;5353369;27;20113;-72
2022/08/08 15:41:06;;;;;;;3.63;1.58;;;;;;;25.41;38.75;102351.94;5353432;27;20019;-69
2022/08/08 15:43:37;;;;;;;2.63;1.30;;;;;;;25.66;38.48;102356.41;5334519;27;20027;-70
2022/08/08 15:46:08;;;;;;;3.90;1.88;;;;;;;25.73;38.86;102348.13;5339568;27;20023;-69
2022/08/08 15:48:39;;;;;;;3.95;1.65;;;;;;;25.71;38.60;102344.81;5348083;27;20034;-70
2022/08/08 15:51:12;;;;;;;4.72;1.50;;;;;;;25.71;38.58;102347.66;5347030;27;20084;-70
2022/08/08 15:53:44;;;;;;;2.67;1.30;;;;;;;25.56;38.42;102349.19;5342043;27;20169;-71
2022/08/08 15:56:15;;;;;;;8.77;6.30;;;;;;;25.66;38.64;102350.72;5345139;27;20098;-71
2022/08/08 15:58:47;;;;;;;41.58;37.15;;;;;;;25.64;38.14;102352.28;5348265;27;20019;-70
2022/08/08 16:01:18;;;;;;;6.55;4.82;;;;;;;25.60;38.12;102346.50;5337591;28;20052;-69
2022/08/08 16:03:50;;;;;;;5.70;2.67;;;;;;;25.72;38.79;102342.78;5345234;28;20027;-71
2022/08/08 16:06:21;;;;;;;3.33;1.60;;;;;;;25.70;38.34;102339.50;5329474;28;20039;-74
2022/08/08 16:08:53;;;;;;;4.20;1.60;;;;;;;25.81;39.27;102340.66;5330597;28;20042;-74
2022/08/08 16:11:24;;;;;;;2.58;1.30;;;;;;;25.94;38.66;102345.16;5345259;28;20042;-73
2022/08/08 16:13:56;;;;;;;3.05;1.48;;;;;;;25.70;38.05;102348.03;5341872;28;20020;-73
2022/08/08 16:16:27;;;;;;;4.95;1.58;;;;;;;25.74;38.28;102341.25;5345735;28;20019;-74
2022/08/08 16:18:58;;;;;;;2.25;1.40;;;;;;;25.46;39.24;102338.31;5337050;27;20023;-74
2022/08/08 16:21:32;;;;;;;3.03;1.20;;;;;;;25.63;39.53;102340.09;5326233;27;20031;-74
2022/08/08 16:24:06;;;;;;;2.40;1.55;;;;;;;25.72;39.56;102331.44;5346488;27;20026;-74
2022/08/08 16:26:39;;;;;;;2.90;1.37;;;;;;;25.59;38.98;102337.16;5341874;27;20024;-72
2022/08/08 16:29:16;;;;;;;2.03;1.35;;;;;;;25.48;39.65;102337.97;5334901;27;20023;-74
2022/08/08 16:31:49;;;;;;;3.10;1.40;;;;;;;25.76;38.88;102338.06;5336466;27;20511;-74
2022/08/08 16:34:20;;;;;;;3.67;1.60;;;;;;;25.51;39.89;102340.91;5338469;27;20042;-73
2022/08/08 16:36:55;;;;;;;2.90;1.23;;;;;;;25.62;39.09;102335.59;5342882;27;20019;-74
2022/08/08 16:39:30;;;;;;;2.53;1.35;;;;;;;25.54;39.08;102343.06;5343359;27;20038;-75
2022/08/08 16:42:02;;;;;;;2.63;1.77;;;;;;;25.56;39.42;102334.19;5349559;27;20023;-74
2022/08/08 16:44:33;;;;;;;2.63;1.40;;;;;;;25.65;39.58;102337.72;5349610;27;20083;-74
2022/08/08 16:47:21;;;;;;;3.92;1.52;;;;;;;25.56;39.22;102340.69;5338598;27;20042;-73
2022/08/08 16:49:57;;;;;;;4.85;1.50;;;;;;;25.71;39.67;102335.47;5349670;27;20496;-74
2022/08/08 16:52:28;;;;;;;3.03;1.33;;;;;;;25.75;39.42;102337.25;5338870;27;20411;-71
2022/08/08 16:55:07;;;;;;;2.63;1.30;;;;;;;25.92;39.06;102341.00;5349813;27;20037;-73
2022/08/08 16:57:39;;;;;;;4.88;1.67;;;;;;;25.85;39.40;102335.94;5349475;27;20019;-73
2022/08/08 17:00:11;;;;;;;3.13;1.52;;;;;;;25.87;39.34;102339.25;5339614;27;20044;-73
2022/08/08 17:02:42;;;;;;;2.63;1.30;;;;;;;25.98;39.75;102339.59;5349520;27;20054;-73
2022/08/08 17:05:13;;;;;;;4.15;1.40;;;;;;;25.86;40.42;102342.47;5348599;27;20059;-74
2022/08/08 17:07:45;;;;;;;4.03;1.35;;;;;;;25.86;40.87;102348.97;5348748;27;20027;-74
2022/08/08 17:10:16;;;;;;;2.67;1.33;;;;;;;25.58;41.53;102348.84;5348270;27;20098;-73
2022/08/08 17:12:47;;;;;;;4.03;1.10;;;;;;;25.68;41.52;102347.56;5338129;27;20427;-73
2022/08/08 17:15:19;;;;;;;3.95;1.50;;;;;;;25.58;41.26;102346.84;5349653;27;20024;-74
2022/08/08 17:17:51;;;;;;;2.97;1.48;;;;;;;25.46;41.73;102349.69;5348941;27;20033;-74
2022/08/08 17:20:22;;;;;;;4.28;1.63;;;;;;;25.51;41.51;102343.75;5348414;27;20100;-73
2022/08/08 17:22:53;;;;;;;4.10;1.63;;;;;;;25.25;41.82;102346.16;5349151;27;20102;-74
2022/08/08 17:25:25;;;;;;;4.13;1.70;;;;;;;25.48;41.76;102344.47;5345617;27;20405;-70
2022/08/08 17:27:57;;;;;;;16.30;3.28;;;;;;;25.32;42.17;102340.72;5343949;27;20031;-71
2022/08/08 17:30:28;;;;;;;10.77;3.50;;;;;;;25.42;42.39;102348.75;5348122;27;20046;-70
2022/08/08 17:32:59;;;;;;;4.53;2.38;;;;;;;25.31;42.39;102354.09;5347104;27;20127;-72
